sensor_id;sensor_type;location;lat;lon;timestamp;P1;durP1;ratioP1;P2;durP2;ratioP2
62903;SDS011;49000;50.698;13.322;2023-08-20T00:00:09;10.45;;;7.68;;
62903;SDS011;49000;50.698;13.322;2023-08-20T00:02:35;8.55;;;7.63;;
62903;SDS011;49000;50.698;13.322;2023-08-20T00:05:02;10.00;;;7.65;;
62903;SDS011;49000;50.698;13.322;2023-08-20T00:07:29;7.72;;;6.93;;
62903;SDS011;49000;50.698;13.322;2023-08-20T00:09:58;8.30;;;7.57;;
62903;SDS011;49000;50.698;13.322;2023-08-20T00:12:24;8.02;;;7.28;;
62903;SDS011;49000;50.698;13.322;2023-08-20T00:14:52;8.93;;;7.97;;
62903;SDS011;49000;50.698;13.322;2023-08-20T00:17:23;7.97;;;7.20;;
62903;SDS011;49000;50.698;13.322;2023-08-20T00:19:52;8.35;;;7.40;;
62903;SDS011;49000;50.698;13.322;2023-08-20T00:22:19;8.90;;;8.00;;
62903;SDS011;49000;50.698;13.322;2023-08-20T00:24:46;8.50;;;7.50;;
62903;SDS011;49000;50.698;13.322;2023-08-20T00:27:12;8.85;;;7.53;;
62903;SDS011;49000;50.698;13.322;2023-08-20T00:29:37;9.23;;;7.45;;
62903;SDS011;49000;50.698;13.322;2023-08-20T00:32:03;10.70;;;8.00;;
62903;SDS011;49000;50.698;13.322;2023-08-20T00:34:29;9.27;;;7.93;;
62903;SDS011;49000;50.698;13.322;2023-08-20T00:36:54;8.55;;;7.35;;
62903;SDS011;49000;50.698;13.322;2023-08-20T00:39:20;9.63;;;7.82;;
62903;SDS011;49000;50.698;13.322;2023-08-20T00:41:45;8.88;;;7.30;;
62903;SDS011;49000;50.698;13.322;2023-08-20T00:44:10;8.65;;;7.85;;
62903;SDS011;49000;50.698;13.322;2023-08-20T00:46:36;10.48;;;7.63;;
62903;SDS011;49000;50.698;13.322;2023-08-20T00:49:02;9.02;;;8.13;;
62903;SDS011;49000;50.698;13.322;2023-08-20T00:51:27;8.43;;;7.63;;
62903;SDS011;49000;50.698;13.322;2023-08-20T00:53:53;8.10;;;7.40;;
62903;SDS011;49000;50.698;13.322;2023-08-20T00:56:19;8.32;;;7.50;;
62903;SDS011;49000;50.698;13.322;2023-08-20T00:58:45;8.05;;;6.93;;
62903;SDS011;49000;50.698;13.322;2023-08-20T01:01:11;8.90;;;6.43;;
62903;SDS011;49000;50.698;13.322;2023-08-20T01:03:36;8.23;;;7.43;;
62903;SDS011;49000;50.698;13.322;2023-08-20T01:06:07;10.63;;;8.25;;
62903;SDS011;49000;50.698;13.322;2023-08-20T01:08:41;7.95;;;7.18;;
62903;SDS011;49000;50.698;13.322;2023-08-20T01:11:21;9.10;;;7.75;;
62903;SDS011;49000;50.698;13.322;2023-08-20T01:13:57;8.75;;;7.32;;
62903;SDS011;49000;50.698;13.322;2023-08-20T01:16:23;9.35;;;7.88;;
62903;SDS011;49000;50.698;13.322;2023-08-20T01:18:49;8.27;;;7.47;;
62903;SDS011;49000;50.698;13.322;2023-08-20T01:21:20;8.88;;;7.00;;
62903;SDS011;49000;50.698;13.322;2023-08-20T01:26:56;7.68;;;6.88;;
62903;SDS011;49000;50.698;13.322;2023-08-20T01:29:23;7.60;;;6.82;;
62903;SDS011;49000;50.698;13.322;2023-08-20T01:31:50;8.75;;;7.05;;
62903;SDS011;49000;50.698;13.322;2023-08-20T01:34:16;7.80;;;7.00;;
62903;SDS011;49000;50.698;13.322;2023-08-20T01:36:42;7.00;;;6.40;;
62903;SDS011;49000;50.698;13.322;2023-08-20T01:39:07;7.38;;;6.68;;
62903;SDS011;49000;50.698;13.322;2023-08-20T01:41:33;8.10;;;7.03;;
62903;SDS011;49000;50.698;13.322;2023-08-20T01:43:58;7.60;;;6.90;;
62903;SDS011;49000;50.698;13.322;2023-08-20T01:46:25;8.63;;;6.80;;
62903;SDS011;49000;50.698;13.322;2023-08-20T01:48:50;7.20;;;6.50;;
62903;SDS011;49000;50.698;13.322;2023-08-20T01:51:16;8.80;;;6.82;;
62903;SDS011;49000;50.698;13.322;2023-08-20T01:53:41;7.38;;;6.68;;
62903;SDS011;49000;50.698;13.322;2023-08-20T01:56:10;7.60;;;6.82;;
62903;SDS011;49000;50.698;13.322;2023-08-20T01:58:37;7.45;;;6.65;;
62903;SDS011;49000;50.698;13.322;2023-08-20T02:01:02;8.07;;;6.90;;
62903;SDS011;49000;50.698;13.322;2023-08-20T02:03:28;8.82;;;6.85;;
62903;SDS011;49000;50.698;13.322;2023-08-20T02:05:53;7.00;;;6.40;;
62903;SDS011;49000;50.698;13.322;2023-08-20T02:08:20;8.23;;;6.28;;
62903;SDS011;49000;50.698;13.322;2023-08-20T02:10:45;6.97;;;6.38;;
62903;SDS011;49000;50.698;13.322;2023-08-20T02:13:11;8.10;;;6.28;;
62903;SDS011;49000;50.698;13.322;2023-08-20T02:15:36;6.53;;;5.93;;
62903;SDS011;49000;50.698;13.322;2023-08-20T02:18:02;6.70;;;6.10;;
62903;SDS011;49000;50.698;13.322;2023-08-20T02:20:28;7.97;;;6.57;;
62903;SDS011;49000;50.698;13.322;2023-08-20T02:22:53;6.47;;;5.82;;
62903;SDS011;49000;50.698;13.322;2023-08-20T02:25:19;7.03;;;6.32;;
62903;SDS011;49000;50.698;13.322;2023-08-20T02:27:44;6.80;;;6.13;;
62903;SDS011;49000;50.698;13.322;2023-08-20T02:30:10;7.15;;;6.45;;
62903;SDS011;49000;50.698;13.322;2023-08-20T02:32:38;7.22;;;6.55;;
62903;SDS011;49000;50.698;13.322;2023-08-20T02:35:04;6.32;;;5.72;;
62903;SDS011;49000;50.698;13.322;2023-08-20T02:37:30;6.57;;;5.90;;
62903;SDS011;49000;50.698;13.322;2023-08-20T02:39:59;8.00;;;7.20;;
62903;SDS011;49000;50.698;13.322;2023-08-20T02:42:24;7.60;;;6.75;;
62903;SDS011;49000;50.698;13.322;2023-08-20T02:44:50;8.65;;;7.03;;
62903;SDS011;49000;50.698;13.322;2023-08-20T02:47:15;6.72;;;6.00;;
62903;SDS011;49000;50.698;13.322;2023-08-20T02:49:41;8.00;;;7.07;;
62903;SDS011;49000;50.698;13.322;2023-08-20T02:52:06;7.63;;;6.82;;
62903;SDS011;49000;50.698;13.322;2023-08-20T02:54:32;9.27;;;7.03;;
62903;SDS011;49000;50.698;13.322;2023-08-20T02:56:58;8.07;;;6.97;;
62903;SDS011;49000;50.698;13.322;2023-08-20T02:59:24;8.55;;;6.97;;
62903;SDS011;49000;50.698;13.322;2023-08-20T03:01:49;7.97;;;7.18;;
62903;SDS011;49000;50.698;13.322;2023-08-20T03:04:15;6.50;;;5.85;;
62903;SDS011;49000;50.698;13.322;2023-08-20T03:06:40;10.23;;;7.60;;
62903;SDS011;49000;50.698;13.322;2023-08-20T03:09:06;9.05;;;6.95;;
62903;SDS011;49000;50.698;13.322;2023-08-20T03:11:31;6.38;;;5.78;;
62903;SDS011;49000;50.698;13.322;2023-08-20T03:13:57;6.95;;;6.25;;
62903;SDS011;49000;50.698;13.322;2023-08-20T03:16:22;7.38;;;6.40;;
62903;SDS011;49000;50.698;13.322;2023-08-20T03:18:48;6.97;;;6.28;;
62903;SDS011;49000;50.698;13.322;2023-08-20T03:21:13;6.68;;;6.07;;
62903;SDS011;49000;50.698;13.322;2023-08-20T03:23:39;6.90;;;6.15;;
62903;SDS011;49000;50.698;13.322;2023-08-20T03:26:04;8.80;;;7.28;;
62903;SDS011;49000;50.698;13.322;2023-08-20T03:28:30;7.05;;;6.45;;
62903;SDS011;49000;50.698;13.322;2023-08-20T03:30:58;6.78;;;6.03;;
62903;SDS011;49000;50.698;13.322;2023-08-20T03:33:25;7.72;;;6.07;;
62903;SDS011;49000;50.698;13.322;2023-08-20T03:35:51;6.82;;;6.13;;
62903;SDS011;49000;50.698;13.322;2023-08-20T03:38:16;6.88;;;6.18;;
62903;SDS011;49000;50.698;13.322;2023-08-20T03:40:42;7.22;;;6.13;;
62903;SDS011;49000;50.698;13.322;2023-08-20T03:43:07;7.22;;;6.43;;
62903;SDS011;49000;50.698;13.322;2023-08-20T03:45:32;8.05;;;6.30;;
62903;SDS011;49000;50.698;13.322;2023-08-20T03:47:58;6.55;;;5.95;;
62903;SDS011;49000;50.698;13.322;2023-08-20T03:50:24;8.57;;;6.50;;
62903;SDS011;49000;50.698;13.322;2023-08-20T03:52:49;6.85;;;6.15;;
62903;SDS011;49000;50.698;13.322;2023-08-20T03:55:15;6.40;;;5.80;;
62903;SDS011;49000;50.698;13.322;2023-08-20T03:57:40;6.35;;;5.70;;
62903;SDS011;49000;50.698;13.322;2023-08-20T04:00:06;8.00;;;6.40;;
62903;SDS011;49000;50.698;13.322;2023-08-20T04:02:34;7.35;;;6.30;;
62903;SDS011;49000;50.698;13.322;2023-08-20T04:04:59;7.07;;;5.85;;
62903;SDS011;49000;50.698;13.322;2023-08-20T04:07:25;8.30;;;6.28;;
62903;SDS011;49000;50.698;13.322;2023-08-20T04:09:50;7.88;;;6.50;;
62903;SDS011;49000;50.698;13.322;2023-08-20T04:12:16;6.70;;;6.07;;
62903;SDS011;49000;50.698;13.322;2023-08-20T04:14:41;6.90;;;6.18;;
62903;SDS011;49000;50.698;13.322;2023-08-20T04:17:07;7.22;;;6.40;;
62903;SDS011;49000;50.698;13.322;2023-08-20T04:19:32;6.22;;;5.63;;
62903;SDS011;49000;50.698;13.322;2023-08-20T04:21:58;8.07;;;6.13;;
62903;SDS011;49000;50.698;13.322;2023-08-20T04:24:23;6.65;;;6.05;;
62903;SDS011;49000;50.698;13.322;2023-08-20T04:26:49;7.53;;;6.60;;
62903;SDS011;49000;50.698;13.322;2023-08-20T04:29:14;8.02;;;6.40;;
62903;SDS011;49000;50.698;13.322;2023-08-20T04:31:40;6.88;;;6.28;;
62903;SDS011;49000;50.698;13.322;2023-08-20T04:34:05;6.90;;;6.20;;
62903;SDS011;49000;50.698;13.322;2023-08-20T04:36:31;7.22;;;5.80;;
62903;SDS011;49000;50.698;13.322;2023-08-20T04:38:56;8.18;;;6.55;;
62903;SDS011;49000;50.698;13.322;2023-08-20T04:41:22;6.93;;;6.22;;
62903;SDS011;49000;50.698;13.322;2023-08-20T04:43:47;7.55;;;6.85;;
62903;SDS011;49000;50.698;13.322;2023-08-20T04:46:13;7.38;;;6.30;;
62903;SDS011;49000;50.698;13.322;2023-08-20T04:48:40;6.35;;;5.82;;
62903;SDS011;49000;50.698;13.322;2023-08-20T04:51:05;7.15;;;6.45;;
62903;SDS011;49000;50.698;13.322;2023-08-20T04:53:31;8.02;;;7.13;;
62903;SDS011;49000;50.698;13.322;2023-08-20T04:55:57;7.47;;;6.78;;
62903;SDS011;49000;50.698;13.322;2023-08-20T04:58:23;7.57;;;6.82;;
62903;SDS011;49000;50.698;13.322;2023-08-20T05:00:48;7.90;;;7.10;;
62903;SDS011;49000;50.698;13.322;2023-08-20T05:03:14;8.98;;;6.72;;
62903;SDS011;49000;50.698;13.322;2023-08-20T05:05:39;6.22;;;5.63;;
62903;SDS011;49000;50.698;13.322;2023-08-20T05:08:05;7.93;;;6.35;;
62903;SDS011;49000;50.698;13.322;2023-08-20T05:10:30;8.80;;;7.03;;
62903;SDS011;49000;50.698;13.322;2023-08-20T05:12:56;7.63;;;6.90;;
62903;SDS011;49000;50.698;13.322;2023-08-20T05:15:21;8.20;;;7.38;;
62903;SDS011;49000;50.698;13.322;2023-08-20T05:17:47;11.73;;;9.93;;
62903;SDS011;49000;50.698;13.322;2023-08-20T05:20:13;20.85;;;16.77;;
62903;SDS011;49000;50.698;13.322;2023-08-20T05:22:40;18.23;;;14.02;;
62903;SDS011;49000;50.698;13.322;2023-08-20T05:25:06;16.02;;;13.38;;
62903;SDS011;49000;50.698;13.322;2023-08-20T05:27:31;13.02;;;11.63;;
62903;SDS011;49000;50.698;13.322;2023-08-20T05:29:57;15.05;;;12.80;;
62903;SDS011;49000;50.698;13.322;2023-08-20T05:32:22;16.23;;;12.18;;
62903;SDS011;49000;50.698;13.322;2023-08-20T05:34:48;16.73;;;13.38;;
62903;SDS011;49000;50.698;13.322;2023-08-20T05:37:13;17.58;;;13.95;;
62903;SDS011;49000;50.698;13.322;2023-08-20T05:39:42;12.82;;;11.32;;
62903;SDS011;49000;50.698;13.322;2023-08-20T05:42:08;10.73;;;9.63;;
62903;SDS011;49000;50.698;13.322;2023-08-20T05:44:34;16.50;;;12.13;;
62903;SDS011;49000;50.698;13.322;2023-08-20T05:47:00;13.60;;;11.35;;
62903;SDS011;49000;50.698;13.322;2023-08-20T05:49:26;15.13;;;11.05;;
62903;SDS011;49000;50.698;13.322;2023-08-20T05:51:52;12.18;;;10.48;;
62903;SDS011;49000;50.698;13.322;2023-08-20T05:54:17;11.68;;;8.93;;
62903;SDS011;49000;50.698;13.322;2023-08-20T05:56:43;11.85;;;8.70;;
62903;SDS011;49000;50.698;13.322;2023-08-20T05:59:09;14.45;;;10.75;;
62903;SDS011;49000;50.698;13.322;2023-08-20T06:01:34;12.50;;;10.85;;
62903;SDS011;49000;50.698;13.322;2023-08-20T06:04:00;16.63;;;11.32;;
62903;SDS011;49000;50.698;13.322;2023-08-20T06:06:26;12.82;;;10.38;;
62903;SDS011;49000;50.698;13.322;2023-08-20T06:08:52;11.98;;;10.52;;
62903;SDS011;49000;50.698;13.322;2023-08-20T06:11:17;13.48;;;11.07;;
62903;SDS011;49000;50.698;13.322;2023-08-20T06:13:44;11.10;;;10.00;;
62903;SDS011;49000;50.698;13.322;2023-08-20T06:16:09;14.75;;;11.05;;
62903;SDS011;49000;50.698;13.322;2023-08-20T06:18:35;14.55;;;11.75;;
62903;SDS011;49000;50.698;13.322;2023-08-20T06:21:01;14.73;;;11.95;;
62903;SDS011;49000;50.698;13.322;2023-08-20T06:23:27;13.18;;;11.00;;
62903;SDS011;49000;50.698;13.322;2023-08-20T06:25:53;12.15;;;10.77;;
62903;SDS011;49000;50.698;13.322;2023-08-20T06:28:19;15.23;;;11.82;;
62903;SDS011;49000;50.698;13.322;2023-08-20T06:30:44;13.63;;;12.23;;
62903;SDS011;49000;50.698;13.322;2023-08-20T06:33:10;13.70;;;10.82;;
62903;SDS011;49000;50.698;13.322;2023-08-20T06:35:36;11.18;;;10.02;;
62903;SDS011;49000;50.698;13.322;2023-08-20T06:38:02;16.05;;;10.25;;
62903;SDS011;49000;50.698;13.322;2023-08-20T06:40:28;11.25;;;9.48;;
62903;SDS011;49000;50.698;13.322;2023-08-20T06:42:53;10.93;;;9.20;;
62903;SDS011;49000;50.698;13.322;2023-08-20T06:45:19;14.00;;;10.50;;
62903;SDS011;49000;50.698;13.322;2023-08-20T06:47:44;13.80;;;10.05;;
62903;SDS011;49000;50.698;13.322;2023-08-20T06:50:10;12.25;;;10.05;;
62903;SDS011;49000;50.698;13.322;2023-08-20T06:52:35;11.70;;;10.35;;
62903;SDS011;49000;50.698;13.322;2023-08-20T06:55:01;14.57;;;10.63;;
62903;SDS011;49000;50.698;13.322;2023-08-20T06:57:26;13.80;;;10.35;;
62903;SDS011;49000;50.698;13.322;2023-08-20T06:59:52;14.35;;;10.60;;
62903;SDS011;49000;50.698;13.322;2023-08-20T07:02:17;11.60;;;9.13;;
62903;SDS011;49000;50.698;13.322;2023-08-20T07:04:43;12.10;;;9.32;;
62903;SDS011;49000;50.698;13.322;2023-08-20T07:07:08;11.90;;;10.35;;
62903;SDS011;49000;50.698;13.322;2023-08-20T07:09:34;12.52;;;10.27;;
62903;SDS011;49000;50.698;13.322;2023-08-20T07:12:00;13.05;;;9.90;;
62903;SDS011;49000;50.698;13.322;2023-08-20T07:14:26;11.90;;;9.90;;
62903;SDS011;49000;50.698;13.322;2023-08-20T07:16:52;11.02;;;9.70;;
62903;SDS011;49000;50.698;13.322;2023-08-20T07:19:17;11.77;;;9.00;;
62903;SDS011;49000;50.698;13.322;2023-08-20T07:21:42;11.43;;;9.43;;
62903;SDS011;49000;50.698;13.322;2023-08-20T07:24:08;10.63;;;9.45;;
62903;SDS011;49000;50.698;13.322;2023-08-20T07:26:34;10.35;;;8.98;;
62903;SDS011;49000;50.698;13.322;2023-08-20T07:28:59;12.40;;;8.88;;
62903;SDS011;49000;50.698;13.322;2023-08-20T07:31:29;9.50;;;8.20;;
62903;SDS011;49000;50.698;13.322;2023-08-20T07:33:56;9.40;;;8.30;;
62903;SDS011;49000;50.698;13.322;2023-08-20T07:36:22;9.38;;;8.48;;
62903;SDS011;49000;50.698;13.322;2023-08-20T07:38:49;9.25;;;7.22;;
62903;SDS011;49000;50.698;13.322;2023-08-20T07:41:16;8.77;;;7.10;;
62903;SDS011;49000;50.698;13.322;2023-08-20T07:43:42;9.77;;;7.15;;
62903;SDS011;49000;50.698;13.322;2023-08-20T07:46:08;8.48;;;6.10;;
62903;SDS011;49000;50.698;13.322;2023-08-20T07:48:34;7.05;;;5.63;;
62903;SDS011;49000;50.698;13.322;2023-08-20T07:51:01;7.45;;;6.20;;
62903;SDS011;49000;50.698;13.322;2023-08-20T07:53:27;7.68;;;6.32;;
62903;SDS011;49000;50.698;13.322;2023-08-20T07:55:53;7.00;;;6.32;;
62903;SDS011;49000;50.698;13.322;2023-08-20T07:58:19;7.85;;;6.20;;
62903;SDS011;49000;50.698;13.322;2023-08-20T08:00:45;7.65;;;6.35;;
62903;SDS011;49000;50.698;13.322;2023-08-20T08:03:10;7.70;;;6.30;;
62903;SDS011;49000;50.698;13.322;2023-08-20T08:05:36;9.65;;;6.95;;
62903;SDS011;49000;50.698;13.322;2023-08-20T08:08:02;6.63;;;6.03;;
62903;SDS011;49000;50.698;13.322;2023-08-20T08:10:28;9.35;;;6.50;;
62903;SDS011;49000;50.698;13.322;2023-08-20T08:12:54;6.53;;;5.78;;
62903;SDS011;49000;50.698;13.322;2023-08-20T08:15:19;6.70;;;6.00;;
62903;SDS011;49000;50.698;13.322;2023-08-20T08:17:45;6.32;;;5.72;;
62903;SDS011;49000;50.698;13.322;2023-08-20T08:20:10;6.35;;;5.72;;
62903;SDS011;49000;50.698;13.322;2023-08-20T08:22:36;5.97;;;5.35;;
62903;SDS011;49000;50.698;13.322;2023-08-20T08:25:01;6.38;;;5.78;;
62903;SDS011;49000;50.698;13.322;2023-08-20T08:27:27;9.52;;;5.88;;
62903;SDS011;49000;50.698;13.322;2023-08-20T08:29:53;7.03;;;5.65;;
62903;SDS011;49000;50.698;13.322;2023-08-20T08:32:18;7.38;;;6.03;;
62903;SDS011;49000;50.698;13.322;2023-08-20T08:34:43;6.43;;;5.38;;
62903;SDS011;49000;50.698;13.322;2023-08-20T08:37:09;7.00;;;5.40;;
62903;SDS011;49000;50.698;13.322;2023-08-20T08:39:34;6.35;;;5.47;;
62903;SDS011;49000;50.698;13.322;2023-08-20T08:42:04;6.22;;;5.70;;
62903;SDS011;49000;50.698;13.322;2023-08-20T08:44:33;6.00;;;5.40;;
62903;SDS011;49000;50.698;13.322;2023-08-20T08:47:01;5.88;;;5.38;;
62903;SDS011;49000;50.698;13.322;2023-08-20T08:49:28;8.57;;;6.18;;
62903;SDS011;49000;50.698;13.322;2023-08-20T08:51:56;8.77;;;6.60;;
62903;SDS011;49000;50.698;13.322;2023-08-20T08:54:22;6.00;;;5.50;;
62903;SDS011;49000;50.698;13.322;2023-08-20T08:56:49;7.13;;;6.43;;
62903;SDS011;49000;50.698;13.322;2023-08-20T08:59:15;6.68;;;5.97;;
62903;SDS011;49000;50.698;13.322;2023-08-20T09:01:41;5.90;;;5.35;;
62903;SDS011;49000;50.698;13.322;2023-08-20T09:04:06;6.88;;;6.07;;
62903;SDS011;49000;50.698;13.322;2023-08-20T09:06:45;9.30;;;6.30;;
62903;SDS011;49000;50.698;13.322;2023-08-20T09:09:11;7.22;;;6.53;;
62903;SDS011;49000;50.698;13.322;2023-08-20T09:11:36;12.20;;;6.40;;
62903;SDS011;49000;50.698;13.322;2023-08-20T09:14:02;7.78;;;6.15;;
62903;SDS011;49000;50.698;13.322;2023-08-20T09:16:29;6.68;;;5.88;;
62903;SDS011;49000;50.698;13.322;2023-08-20T09:18:57;7.00;;;6.40;;
62903;SDS011;49000;50.698;13.322;2023-08-20T09:21:27;6.93;;;5.70;;
62903;SDS011;49000;50.698;13.322;2023-08-20T09:23:54;6.38;;;5.78;;
62903;SDS011;49000;50.698;13.322;2023-08-20T09:26:22;6.43;;;5.85;;
62903;SDS011;49000;50.698;13.322;2023-08-20T09:28:47;6.50;;;5.88;;
62903;SDS011;49000;50.698;13.322;2023-08-20T09:31:13;10.25;;;6.78;;
62903;SDS011;49000;50.698;13.322;2023-08-20T09:33:48;6.25;;;5.63;;
62903;SDS011;49000;50.698;13.322;2023-08-20T09:36:29;6.07;;;5.57;;
62903;SDS011;49000;50.698;13.322;2023-08-20T09:38:55;7.70;;;6.25;;
62903;SDS011;49000;50.698;13.322;2023-08-20T09:41:21;6.80;;;5.65;;
62903;SDS011;49000;50.698;13.322;2023-08-20T09:43:48;5.93;;;5.25;;
62903;SDS011;49000;50.698;13.322;2023-08-20T09:46:19;6.28;;;5.68;;
62903;SDS011;49000;50.698;13.322;2023-08-20T09:48:48;6.32;;;5.82;;
62903;SDS011;49000;50.698;13.322;2023-08-20T09:51:18;5.90;;;5.30;;
62903;SDS011;49000;50.698;13.322;2023-08-20T09:54:00;7.25;;;5.30;;
62903;SDS011;49000;50.698;13.322;2023-08-20T09:56:38;6.47;;;5.88;;
62903;SDS011;49000;50.698;13.322;2023-08-20T09:59:04;5.82;;;5.32;;
62903;SDS011;49000;50.698;13.322;2023-08-20T10:01:30;7.05;;;5.95;;
62903;SDS011;49000;50.698;13.322;2023-08-20T10:03:56;5.75;;;5.13;;
62903;SDS011;49000;50.698;13.322;2023-08-20T10:06:23;6.03;;;5.40;;
62903;SDS011;49000;50.698;13.322;2023-08-20T10:08:49;7.63;;;5.50;;
62903;SDS011;49000;50.698;13.322;2023-08-20T10:11:16;7.43;;;5.30;;
62903;SDS011;49000;50.698;13.322;2023-08-20T10:13:42;5.57;;;5.07;;
62903;SDS011;49000;50.698;13.322;2023-08-20T10:16:08;6.20;;;5.32;;
62903;SDS011;49000;50.698;13.322;2023-08-20T10:18:36;6.72;;;6.13;;
62903;SDS011;49000;50.698;13.322;2023-08-20T10:21:02;6.38;;;5.72;;
62903;SDS011;49000;50.698;13.322;2023-08-20T10:23:32;7.07;;;5.70;;
62903;SDS011;49000;50.698;13.322;2023-08-20T10:26:07;7.50;;;6.03;;
62903;SDS011;49000;50.698;13.322;2023-08-20T10:28:34;5.28;;;4.88;;
62903;SDS011;49000;50.698;13.322;2023-08-20T10:33:48;7.15;;;6.45;;
62903;SDS011;49000;50.698;13.322;2023-08-20T10:36:19;6.35;;;5.85;;
62903;SDS011;49000;50.698;13.322;2023-08-20T10:38:55;6.20;;;5.70;;
62903;SDS011;49000;50.698;13.322;2023-08-20T10:41:26;9.27;;;5.90;;
62903;SDS011;49000;50.698;13.322;2023-08-20T10:43:53;7.43;;;5.97;;
62903;SDS011;49000;50.698;13.322;2023-08-20T10:46:23;7.30;;;6.60;;
62903;SDS011;49000;50.698;13.322;2023-08-20T10:48:54;7.32;;;6.43;;
62903;SDS011;49000;50.698;13.322;2023-08-20T10:59:08;7.00;;;6.40;;
62903;SDS011;49000;50.698;13.322;2023-08-20T11:01:37;7.18;;;6.30;;
62903;SDS011;49000;50.698;13.322;2023-08-20T11:04:04;6.88;;;6.25;;
62903;SDS011;49000;50.698;13.322;2023-08-20T11:06:32;6.97;;;6.28;;
62903;SDS011;49000;50.698;13.322;2023-08-20T11:08:58;7.03;;;6.43;;
62903;SDS011;49000;50.698;13.322;2023-08-20T11:11:24;6.55;;;5.95;;
62903;SDS011;49000;50.698;13.322;2023-08-20T11:13:50;7.60;;;6.15;;
62903;SDS011;49000;50.698;13.322;2023-08-20T11:16:16;7.22;;;6.50;;
62903;SDS011;49000;50.698;13.322;2023-08-20T11:18:41;6.13;;;5.53;;
62903;SDS011;49000;50.698;13.322;2023-08-20T11:21:07;6.95;;;6.35;;
62903;SDS011;49000;50.698;13.322;2023-08-20T11:23:34;7.47;;;6.55;;
62903;SDS011;49000;50.698;13.322;2023-08-20T11:26:00;7.45;;;6.25;;
62903;SDS011;49000;50.698;13.322;2023-08-20T11:28:26;8.35;;;5.90;;
62903;SDS011;49000;50.698;13.322;2023-08-20T11:30:52;6.05;;;5.45;;
62903;SDS011;49000;50.698;13.322;2023-08-20T11:33:19;6.78;;;6.07;;
62903;SDS011;49000;50.698;13.322;2023-08-20T11:35:46;7.10;;;6.25;;
62903;SDS011;49000;50.698;13.322;2023-08-20T11:38:12;6.57;;;5.97;;
62903;SDS011;49000;50.698;13.322;2023-08-20T11:40:38;7.28;;;6.30;;
62903;SDS011;49000;50.698;13.322;2023-08-20T11:43:03;6.57;;;5.88;;
62903;SDS011;49000;50.698;13.322;2023-08-20T11:45:30;6.75;;;6.18;;
62903;SDS011;49000;50.698;13.322;2023-08-20T11:47:57;6.45;;;5.85;;
62903;SDS011;49000;50.698;13.322;2023-08-20T11:50:23;8.02;;;5.78;;
62903;SDS011;49000;50.698;13.322;2023-08-20T11:52:49;6.63;;;6.03;;
62903;SDS011;49000;50.698;13.322;2023-08-20T11:55:21;6.53;;;6.03;;
62903;SDS011;49000;50.698;13.322;2023-08-20T11:57:51;8.32;;;6.18;;
62903;SDS011;49000;50.698;13.322;2023-08-20T12:00:23;8.88;;;6.43;;
62903;SDS011;49000;50.698;13.322;2023-08-20T12:02:53;6.45;;;5.75;;
62903;SDS011;49000;50.698;13.322;2023-08-20T12:05:26;6.53;;;5.88;;
62903;SDS011;49000;50.698;13.322;2023-08-20T12:07:59;6.15;;;5.65;;
62903;SDS011;49000;50.698;13.322;2023-08-20T12:10:26;7.00;;;6.13;;
62903;SDS011;49000;50.698;13.322;2023-08-20T12:12:53;7.10;;;6.50;;
62903;SDS011;49000;50.698;13.322;2023-08-20T12:15:20;6.72;;;5.72;;
62903;SDS011;49000;50.698;13.322;2023-08-20T12:18:02;8.13;;;6.25;;
62903;SDS011;49000;50.698;13.322;2023-08-20T12:20:30;7.25;;;6.57;;
62903;SDS011;49000;50.698;13.322;2023-08-20T12:22:57;6.55;;;5.93;;
62903;SDS011;49000;50.698;13.322;2023-08-20T12:25:24;6.20;;;5.70;;
62903;SDS011;49000;50.698;13.322;2023-08-20T12:27:50;6.35;;;5.85;;
62903;SDS011;49000;50.698;13.322;2023-08-20T12:30:16;7.40;;;6.10;;
62903;SDS011;49000;50.698;13.322;2023-08-20T12:32:41;6.55;;;5.88;;
62903;SDS011;49000;50.698;13.322;2023-08-20T12:35:07;6.43;;;5.82;;
62903;SDS011;49000;50.698;13.322;2023-08-20T12:37:33;6.60;;;6.00;;
62903;SDS011;49000;50.698;13.322;2023-08-20T12:39:59;5.68;;;5.20;;
62903;SDS011;49000;50.698;13.322;2023-08-20T12:42:24;8.60;;;6.40;;
62903;SDS011;49000;50.698;13.322;2023-08-20T12:44:50;5.95;;;5.55;;
62903;SDS011;49000;50.698;13.322;2023-08-20T12:47:15;6.95;;;6.22;;
62903;SDS011;49000;50.698;13.322;2023-08-20T12:49:41;7.13;;;6.47;;
62903;SDS011;49000;50.698;13.322;2023-08-20T12:52:06;7.30;;;6.30;;
62903;SDS011;49000;50.698;13.322;2023-08-20T12:54:32;6.65;;;5.93;;
62903;SDS011;49000;50.698;13.322;2023-08-20T12:56:57;7.40;;;6.10;;
62903;SDS011;49000;50.698;13.322;2023-08-20T12:59:23;8.25;;;6.28;;
62903;SDS011;49000;50.698;13.322;2023-08-20T13:01:49;6.45;;;5.82;;
62903;SDS011;49000;50.698;13.322;2023-08-20T13:04:14;7.05;;;6.40;;
62903;SDS011;49000;50.698;13.322;2023-08-20T13:06:40;6.78;;;6.10;;
62903;SDS011;49000;50.698;13.322;2023-08-20T13:09:06;6.47;;;5.88;;
62903;SDS011;49000;50.698;13.322;2023-08-20T13:11:34;7.82;;;6.72;;
62903;SDS011;49000;50.698;13.322;2023-08-20T13:14:01;7.60;;;6.90;;
62903;SDS011;49000;50.698;13.322;2023-08-20T13:16:26;8.13;;;7.38;;
62903;SDS011;49000;50.698;13.322;2023-08-20T13:18:54;6.88;;;6.28;;
62903;SDS011;49000;50.698;13.322;2023-08-20T13:21:19;7.70;;;6.93;;
62903;SDS011;49000;50.698;13.322;2023-08-20T13:23:46;8.77;;;6.78;;
62903;SDS011;49000;50.698;13.322;2023-08-20T13:26:12;8.80;;;6.82;;
62903;SDS011;49000;50.698;13.322;2023-08-20T13:28:37;7.45;;;6.75;;
62903;SDS011;49000;50.698;13.322;2023-08-20T13:31:03;7.78;;;7.00;;
62903;SDS011;49000;50.698;13.322;2023-08-20T13:33:28;7.28;;;6.63;;
62903;SDS011;49000;50.698;13.322;2023-08-20T13:35:54;6.72;;;6.07;;
62903;SDS011;49000;50.698;13.322;2023-08-20T13:38:21;7.03;;;6.43;;
62903;SDS011;49000;50.698;13.322;2023-08-20T13:40:47;8.30;;;6.85;;
62903;SDS011;49000;50.698;13.322;2023-08-20T13:43:13;6.85;;;6.25;;
62903;SDS011;49000;50.698;13.322;2023-08-20T13:45:39;8.45;;;6.78;;
62903;SDS011;49000;50.698;13.322;2023-08-20T13:48:07;7.32;;;6.72;;
62903;SDS011;49000;50.698;13.322;2023-08-20T13:50:33;7.50;;;6.68;;
62903;SDS011;49000;50.698;13.322;2023-08-20T13:52:58;9.50;;;7.25;;
62903;SDS011;49000;50.698;13.322;2023-08-20T13:55:24;7.05;;;6.47;;
62903;SDS011;49000;50.698;13.322;2023-08-20T13:57:49;7.35;;;6.75;;
62903;SDS011;49000;50.698;13.322;2023-08-20T14:00:15;8.60;;;6.90;;
62903;SDS011;49000;50.698;13.322;2023-08-20T14:02:41;7.20;;;6.70;;
62903;SDS011;49000;50.698;13.322;2023-08-20T14:05:07;7.07;;;6.57;;
62903;SDS011;49000;50.698;13.322;2023-08-20T14:07:33;7.90;;;7.13;;
62903;SDS011;49000;50.698;13.322;2023-08-20T14:09:59;6.85;;;6.25;;
62903;SDS011;49000;50.698;13.322;2023-08-20T14:12:25;6.57;;;5.90;;
62903;SDS011;49000;50.698;13.322;2023-08-20T14:14:50;7.30;;;6.53;;
62903;SDS011;49000;50.698;13.322;2023-08-20T14:17:16;9.35;;;6.82;;
62903;SDS011;49000;50.698;13.322;2023-08-20T14:19:42;7.90;;;7.13;;
62903;SDS011;49000;50.698;13.322;2023-08-20T14:22:07;7.50;;;6.80;;
62903;SDS011;49000;50.698;13.322;2023-08-20T14:24:33;7.97;;;6.70;;
62903;SDS011;49000;50.698;13.322;2023-08-20T14:26:58;6.88;;;6.38;;
62903;SDS011;49000;50.698;13.322;2023-08-20T14:29:24;7.40;;;6.68;;
62903;SDS011;49000;50.698;13.322;2023-08-20T14:31:49;6.97;;;6.35;;
62903;SDS011;49000;50.698;13.322;2023-08-20T14:34:15;7.68;;;6.68;;
62903;SDS011;49000;50.698;13.322;2023-08-20T14:36:40;7.85;;;7.15;;
62903;SDS011;49000;50.698;13.322;2023-08-20T14:39:06;8.07;;;7.20;;